sensor_id;sensor_type;location;lat;lon;timestamp;noise_LAeq;noise_LA_min;noise_LA_max;noise_LA01;noise_LA95
43787;Laerm;29409;49.306;8.500;2023-06-14T00:00:43;39.66;36.10;42.76;;
43787;Laerm;29409;49.306;8.500;2023-06-14T00:01:44;39.70;35.66;43.34;;
43787;Laerm;29409;49.306;8.500;2023-06-14T00:02:45;39.69;34.31;42.16;;
43787;Laerm;29409;49.306;8.500;2023-06-14T00:03:45;39.58;35.36;42.29;;
43787;Laerm;29409;49.306;8.500;2023-06-14T00:04:47;40.98;36.91;47.55;;
43787;Laerm;29409;49.306;8.500;2023-06-14T00:05:48;40.08;36.45;43.19;;
43787;Laerm;29409;49.306;8.500;2023-06-14T00:06:49;40.84;37.52;43.58;;
43787;Laerm;29409;49.306;8.500;2023-06-14T00:07:50;41.13;38.05;43.44;;
43787;Laerm;29409;49.306;8.500;2023-06-14T00:08:53;39.95;36.69;42.53;;
43787;Laerm;29409;49.306;8.500;2023-06-14T00:09:54;40.70;37.52;43.86;;
43787;Laerm;29409;49.306;8.500;2023-06-14T00:10:54;40.60;37.88;43.44;;
43787;Laerm;29409;49.306;8.500;2023-06-14T00:11:55;40.78;37.12;45.69;;
43787;Laerm;29409;49.306;8.500;2023-06-14T00:12:55;40.64;37.88;42.93;;
43787;Laerm;29409;49.306;8.500;2023-06-14T00:13:56;40.21;36.91;42.82;;
43787;Laerm;29409;49.306;8.500;2023-06-14T00:14:57;39.73;36.45;42.71;;
43787;Laerm;29409;49.306;8.500;2023-06-14T00:15:57;39.81;36.20;42.29;;
43787;Laerm;29409;49.306;8.500;2023-06-14T00:16:57;40.99;37.12;44.97;;
43787;Laerm;29409;49.306;8.500;2023-06-14T00:17:58;40.18;36.69;42.47;;
43787;Laerm;29409;49.306;8.500;2023-06-14T00:19:01;39.93;36.45;42.29;;
43787;Laerm;29409;49.306;8.500;2023-06-14T00:20:03;39.83;36.91;42.41;;
43787;Laerm;29409;49.306;8.500;2023-06-14T00:21:24;39.77;36.10;42.29;;
43787;Laerm;29409;49.306;8.500;2023-06-14T00:22:24;39.95;36.91;42.98;;
43787;Laerm;29409;49.306;8.500;2023-06-14T00:23:26;40.62;37.88;47.34;;
43787;Laerm;29409;49.306;8.500;2023-06-14T00:24:26;40.28;37.52;42.65;;
43787;Laerm;29409;49.306;8.500;2023-06-14T00:25:26;40.15;37.32;41.96;;
43787;Laerm;29409;49.306;8.500;2023-06-14T00:26:27;40.17;36.69;43.39;;
43787;Laerm;29409;49.306;8.500;2023-06-14T00:27:27;39.79;36.45;42.22;;
43787;Laerm;29409;49.306;8.500;2023-06-14T00:28:28;39.95;36.91;42.65;;
43787;Laerm;29409;49.306;8.500;2023-06-14T00:29:28;41.26;37.70;45.80;;
43787;Laerm;29409;49.306;8.500;2023-06-14T00:30:28;41.81;37.88;49.12;;
43787;Laerm;29409;49.306;8.500;2023-06-14T00:31:30;40.76;37.70;48.03;;
43787;Laerm;29409;49.306;8.500;2023-06-14T00:32:32;39.83;37.12;42.09;;
43787;Laerm;29409;49.306;8.500;2023-06-14T00:33:32;40.40;36.91;44.07;;
43787;Laerm;29409;49.306;8.500;2023-06-14T00:34:32;40.22;37.12;43.19;;
43787;Laerm;29409;49.306;8.500;2023-06-14T00:35:32;39.97;36.69;42.29;;
43787;Laerm;29409;49.306;8.500;2023-06-14T00:36:33;39.69;36.45;41.89;;
43787;Laerm;29409;49.306;8.500;2023-06-14T00:37:33;40.14;37.52;42.93;;
43787;Laerm;29409;49.306;8.500;2023-06-14T00:38:33;40.11;36.69;42.53;;
43787;Laerm;29409;49.306;8.500;2023-06-14T00:39:34;39.92;36.91;41.89;;
43787;Laerm;29409;49.306;8.500;2023-06-14T00:40:34;39.75;36.69;43.29;;
43787;Laerm;29409;49.306;8.500;2023-06-14T00:41:36;39.77;36.45;41.96;;
43787;Laerm;29409;49.306;8.500;2023-06-14T00:42:37;39.87;36.69;42.29;;
43787;Laerm;29409;49.306;8.500;2023-06-14T00:43:37;39.90;36.45;44.15;;
43787;Laerm;29409;49.306;8.500;2023-06-14T00:44:39;40.27;36.69;46.07;;
43787;Laerm;29409;49.306;8.500;2023-06-14T00:45:39;39.68;35.94;42.09;;
43787;Laerm;29409;49.306;8.500;2023-06-14T00:46:39;39.78;35.94;42.71;;
43787;Laerm;29409;49.306;8.500;2023-06-14T00:47:41;41.30;38.37;46.52;;
43787;Laerm;29409;49.306;8.500;2023-06-14T00:48:41;40.64;37.12;46.59;;
43787;Laerm;29409;49.306;8.500;2023-06-14T00:49:41;41.52;37.12;61.72;;
43787;Laerm;29409;49.306;8.500;2023-06-14T00:50:42;39.79;36.45;42.82;;
43787;Laerm;29409;49.306;8.500;2023-06-14T00:51:48;40.03;36.20;47.61;;
43787;Laerm;29409;49.306;8.500;2023-06-14T00:52:48;39.45;36.20;41.96;;
43787;Laerm;29409;49.306;8.500;2023-06-14T00:53:49;39.62;35.36;42.88;;
43787;Laerm;29409;49.306;8.500;2023-06-14T00:54:50;41.09;36.91;47.26;;
43787;Laerm;29409;49.306;8.500;2023-06-14T00:55:50;40.07;36.91;46.71;;
43787;Laerm;29409;49.306;8.500;2023-06-14T00:56:50;40.11;36.69;43.44;;
43787;Laerm;29409;49.306;8.500;2023-06-14T00:57:51;39.88;37.12;42.29;;
43787;Laerm;29409;49.306;8.500;2023-06-14T00:58:52;39.98;36.77;42.76;;
43787;Laerm;29409;49.306;8.500;2023-06-14T00:59:53;39.94;36.91;43.04;;
43787;Laerm;29409;49.306;8.500;2023-06-14T01:00:54;40.69;36.91;52.35;;
43787;Laerm;29409;49.306;8.500;2023-06-14T01:01:54;40.63;37.12;43.39;;
43787;Laerm;29409;49.306;8.500;2023-06-14T01:02:56;39.57;35.36;42.29;;
43787;Laerm;29409;49.306;8.500;2023-06-14T01:03:58;39.70;35.36;42.09;;
43787;Laerm;29409;49.306;8.500;2023-06-14T01:05:01;39.97;36.45;43.94;;
43787;Laerm;29409;49.306;8.500;2023-06-14T01:07:46;39.85;36.69;42.16;;
43787;Laerm;29409;49.306;8.500;2023-06-14T01:08:51;39.63;37.12;41.81;;
43787;Laerm;29409;49.306;8.500;2023-06-14T01:11:32;39.84;36.69;42.82;;
43787;Laerm;29409;49.306;8.500;2023-06-14T01:12:36;40.39;37.12;42.88;;
43787;Laerm;29409;49.306;8.500;2023-06-14T01:13:40;40.99;37.70;45.20;;
43787;Laerm;29409;49.306;8.500;2023-06-14T01:14:45;40.39;36.69;42.47;;
43787;Laerm;29409;49.306;8.500;2023-06-14T01:15:47;39.48;37.12;41.75;;
43787;Laerm;29409;49.306;8.500;2023-06-14T01:16:48;39.63;36.20;41.89;;
43787;Laerm;29409;49.306;8.500;2023-06-14T01:17:53;39.56;36.91;41.53;;
43787;Laerm;29409;49.306;8.500;2023-06-14T01:18:56;39.88;36.20;44.03;;
43787;Laerm;29409;49.306;8.500;2023-06-14T01:19:56;39.27;35.94;41.68;;
43787;Laerm;29409;49.306;8.500;2023-06-14T01:20:57;39.87;36.69;42.16;;
43787;Laerm;29409;49.306;8.500;2023-06-14T01:21:58;40.15;37.32;42.16;;
43787;Laerm;29409;49.306;8.500;2023-06-14T01:23:01;39.97;37.12;42.29;;
43787;Laerm;29409;49.306;8.500;2023-06-14T01:24:03;40.43;37.32;43.49;;
43787;Laerm;29409;49.306;8.500;2023-06-14T01:25:04;39.72;37.12;45.23;;
43787;Laerm;29409;49.306;8.500;2023-06-14T01:26:04;39.92;36.45;41.96;;
43787;Laerm;29409;49.306;8.500;2023-06-14T01:27:05;39.90;37.32;42.16;;
43787;Laerm;29409;49.306;8.500;2023-06-14T01:28:08;40.31;38.05;42.30;;
43787;Laerm;29409;49.306;8.500;2023-06-14T01:29:10;40.10;37.52;42.64;;
43787;Laerm;29409;49.306;8.500;2023-06-14T01:30:12;39.81;37.32;42.03;;
43787;Laerm;29409;49.306;8.500;2023-06-14T01:31:12;39.63;36.20;41.75;;
43787;Laerm;29409;49.306;8.500;2023-06-14T01:32:13;39.76;36.45;47.16;;
43787;Laerm;29409;49.306;8.500;2023-06-14T01:33:14;40.01;36.91;42.03;;
43787;Laerm;29409;49.306;8.500;2023-06-14T01:34:15;40.93;37.70;42.93;;
43787;Laerm;29409;49.306;8.500;2023-06-14T01:35:16;40.32;37.70;44.58;;
43787;Laerm;29409;49.306;8.500;2023-06-14T01:36:19;43.20;38.21;53.35;;
43787;Laerm;29409;49.306;8.500;2023-06-14T01:37:20;42.38;38.95;52.92;;
43787;Laerm;29409;49.306;8.500;2023-06-14T01:38:22;40.09;37.70;41.96;;
43787;Laerm;29409;49.306;8.500;2023-06-14T01:39:24;40.16;36.91;42.41;;
43787;Laerm;29409;49.306;8.500;2023-06-14T01:40:26;40.61;37.52;48.48;;
43787;Laerm;29409;49.306;8.500;2023-06-14T01:41:28;40.59;37.12;44.39;;
43787;Laerm;29409;49.306;8.500;2023-06-14T01:42:29;39.66;36.69;42.71;;
43787;Laerm;29409;49.306;8.500;2023-06-14T01:43:30;39.82;37.12;41.82;;
43787;Laerm;29409;49.306;8.500;2023-06-14T01:44:31;40.33;37.88;42.29;;
43787;Laerm;29409;49.306;8.500;2023-06-14T01:45:31;40.89;37.32;43.29;;
43787;Laerm;29409;49.306;8.500;2023-06-14T01:46:32;39.82;36.45;52.65;;
43787;Laerm;29409;49.306;8.500;2023-06-14T01:47:32;40.02;37.12;43.54;;
43787;Laerm;29409;49.306;8.500;2023-06-14T01:48:34;40.61;36.91;48.07;;
43787;Laerm;29409;49.306;8.500;2023-06-14T01:49:34;40.40;37.52;43.44;;
43787;Laerm;29409;49.306;8.500;2023-06-14T01:50:35;40.63;38.21;43.44;;
43787;Laerm;29409;49.306;8.500;2023-06-14T01:51:37;40.76;37.52;44.69;;
43787;Laerm;29409;49.306;8.500;2023-06-14T01:52:37;39.97;36.69;43.86;;
43787;Laerm;29409;49.306;8.500;2023-06-14T01:53:38;39.89;37.12;42.16;;
43787;Laerm;29409;49.306;8.500;2023-06-14T01:54:38;40.19;37.12;43.14;;
43787;Laerm;29409;49.306;8.500;2023-06-14T01:55:43;39.88;37.12;42.71;;
43787;Laerm;29409;49.306;8.500;2023-06-14T01:56:48;40.10;37.12;48.36;;
43787;Laerm;29409;49.306;8.500;2023-06-14T01:57:49;39.78;37.12;41.89;;
43787;Laerm;29409;49.306;8.500;2023-06-14T01:58:49;41.26;37.12;55.09;;
43787;Laerm;29409;49.306;8.500;2023-06-14T01:59:50;40.42;37.12;52.15;;
43787;Laerm;29409;49.306;8.500;2023-06-14T02:00:51;40.44;37.70;53.08;;
43787;Laerm;29409;49.306;8.500;2023-06-14T02:01:55;40.17;37.70;42.16;;
43787;Laerm;29409;49.306;8.500;2023-06-14T02:02:55;40.56;37.32;52.21;;
43787;Laerm;29409;49.306;8.500;2023-06-14T02:03:55;45.33;37.52;76.01;;
43787;Laerm;29409;49.306;8.500;2023-06-14T02:04:56;40.54;37.88;48.84;;
43787;Laerm;29409;49.306;8.500;2023-06-14T02:05:57;40.04;37.32;42.16;;
43787;Laerm;29409;49.306;8.500;2023-06-14T02:06:58;40.04;36.91;52.32;;
43787;Laerm;29409;49.306;8.500;2023-06-14T02:07:59;40.59;37.52;44.03;;
43787;Laerm;29409;49.306;8.500;2023-06-14T02:09:00;40.87;37.32;46.28;;
43787;Laerm;29409;49.306;8.500;2023-06-14T02:10:00;40.75;37.32;52.66;;
43787;Laerm;29409;49.306;8.500;2023-06-14T02:11:01;41.16;37.32;53.01;;
43787;Laerm;29409;49.306;8.500;2023-06-14T02:12:01;40.99;37.88;46.50;;
43787;Laerm;29409;49.306;8.500;2023-06-14T02:13:01;41.52;36.91;54.46;;
43787;Laerm;29409;49.306;8.500;2023-06-14T02:14:02;41.20;36.69;53.65;;
43787;Laerm;29409;49.306;8.500;2023-06-14T02:15:02;41.22;37.88;53.28;;
43787;Laerm;29409;49.306;8.500;2023-06-14T02:16:03;42.65;38.74;62.75;;
43787;Laerm;29409;49.306;8.500;2023-06-14T02:17:04;41.11;37.12;55.90;;
43787;Laerm;29409;49.306;8.500;2023-06-14T02:18:04;40.77;38.05;47.30;;
43787;Laerm;29409;49.306;8.500;2023-06-14T02:19:05;42.44;37.70;51.94;;
43787;Laerm;29409;49.306;8.500;2023-06-14T02:20:06;41.31;37.32;51.63;;
43787;Laerm;29409;49.306;8.500;2023-06-14T02:21:07;41.85;37.70;51.59;;
43787;Laerm;29409;49.306;8.500;2023-06-14T02:22:07;41.35;37.32;50.20;;
43787;Laerm;29409;49.306;8.500;2023-06-14T02:23:08;41.96;37.32;55.25;;
43787;Laerm;29409;49.306;8.500;2023-06-14T02:24:09;41.56;37.32;50.42;;
43787;Laerm;29409;49.306;8.500;2023-06-14T02:25:10;41.57;36.69;51.11;;
43787;Laerm;29409;49.306;8.500;2023-06-14T02:26:10;41.18;37.12;51.21;;
43787;Laerm;29409;49.306;8.500;2023-06-14T02:27:10;42.14;37.53;50.58;;
43787;Laerm;29409;49.306;8.500;2023-06-14T02:28:11;42.66;37.12;51.28;;
43787;Laerm;29409;49.306;8.500;2023-06-14T02:29:11;41.29;37.32;51.68;;
43787;Laerm;29409;49.306;8.500;2023-06-14T02:30:14;41.00;36.91;52.78;;
43787;Laerm;29409;49.306;8.500;2023-06-14T02:31:15;41.45;37.70;51.89;;
43787;Laerm;29409;49.306;8.500;2023-06-14T02:32:17;42.76;38.52;52.55;;
43787;Laerm;29409;49.306;8.500;2023-06-14T02:33:17;41.78;38.21;53.42;;
43787;Laerm;29409;49.306;8.500;2023-06-14T02:34:17;41.21;37.88;50.85;;
43787;Laerm;29409;49.306;8.500;2023-06-14T02:35:20;41.36;38.05;53.64;;
43787;Laerm;29409;49.306;8.500;2023-06-14T02:36:22;41.96;38.05;51.83;;
43787;Laerm;29409;49.306;8.500;2023-06-14T02:37:22;42.40;38.37;51.44;;
43787;Laerm;29409;49.306;8.500;2023-06-14T02:38:23;42.27;38.37;51.76;;
43787;Laerm;29409;49.306;8.500;2023-06-14T02:39:23;42.40;38.21;51.47;;
43787;Laerm;29409;49.306;8.500;2023-06-14T02:40:23;41.50;38.05;50.66;;
43787;Laerm;29409;49.306;8.500;2023-06-14T02:41:25;42.51;38.05;51.66;;
43787;Laerm;29409;49.306;8.500;2023-06-14T02:42:26;43.36;38.21;54.15;;
43787;Laerm;29409;49.306;8.500;2023-06-14T02:43:28;40.81;37.70;47.98;;
43787;Laerm;29409;49.306;8.500;2023-06-14T02:44:29;40.27;37.12;44.43;;
43787;Laerm;29409;49.306;8.500;2023-06-14T02:45:29;40.52;37.12;43.19;;
43787;Laerm;29409;49.306;8.500;2023-06-14T02:46:30;41.40;38.21;49.98;;
43787;Laerm;29409;49.306;8.500;2023-06-14T02:47:30;41.26;38.37;47.72;;
43787;Laerm;29409;49.306;8.500;2023-06-14T02:48:30;41.20;37.88;50.37;;
43787;Laerm;29409;49.306;8.500;2023-06-14T02:49:31;40.80;38.21;46.02;;
43787;Laerm;29409;49.306;8.500;2023-06-14T02:50:31;41.36;37.88;47.96;;
43787;Laerm;29409;49.306;8.500;2023-06-14T02:51:32;42.10;38.21;52.34;;
43787;Laerm;29409;49.306;8.500;2023-06-14T02:52:33;41.16;37.88;48.20;;
43787;Laerm;29409;49.306;8.500;2023-06-14T02:53:33;42.90;38.67;51.91;;
43787;Laerm;29409;49.306;8.500;2023-06-14T02:54:34;42.00;38.37;49.82;;
43787;Laerm;29409;49.306;8.500;2023-06-14T02:55:35;43.32;39.21;51.17;;
43787;Laerm;29409;49.306;8.500;2023-06-14T02:56:39;41.54;38.81;48.45;;
43787;Laerm;29409;49.306;8.500;2023-06-14T02:57:40;41.65;38.52;50.29;;
43787;Laerm;29409;49.306;8.500;2023-06-14T02:58:41;42.05;38.21;52.29;;
43787;Laerm;29409;49.306;8.500;2023-06-14T02:59:41;41.55;38.67;50.79;;
43787;Laerm;29409;49.306;8.500;2023-06-14T03:00:42;42.60;38.52;51.65;;
43787;Laerm;29409;49.306;8.500;2023-06-14T03:01:42;42.71;38.67;53.61;;
43787;Laerm;29409;49.306;8.500;2023-06-14T03:02:42;42.41;38.21;52.29;;
43787;Laerm;29409;49.306;8.500;2023-06-14T03:03:43;42.42;38.67;51.37;;
43787;Laerm;29409;49.306;8.500;2023-06-14T03:04:43;44.66;38.67;54.68;;
43787;Laerm;29409;49.306;8.500;2023-06-14T03:05:46;43.33;39.46;53.55;;
43787;Laerm;29409;49.306;8.500;2023-06-14T03:06:47;43.86;39.21;52.70;;
43787;Laerm;29409;49.306;8.500;2023-06-14T03:07:50;43.62;40.03;52.92;;
43787;Laerm;29409;49.306;8.500;2023-06-14T03:08:50;43.29;40.08;51.21;;
43787;Laerm;29409;49.306;8.500;2023-06-14T03:09:51;43.93;40.23;53.02;;
43787;Laerm;29409;49.306;8.500;2023-06-14T03:10:51;43.40;40.23;53.16;;
43787;Laerm;29409;49.306;8.500;2023-06-14T03:11:52;42.49;40.03;48.37;;
43787;Laerm;29409;49.306;8.500;2023-06-14T03:12:53;42.29;38.52;52.95;;
43787;Laerm;29409;49.306;8.500;2023-06-14T03:13:53;42.55;40.23;50.03;;
43787;Laerm;29409;49.306;8.500;2023-06-14T03:14:53;42.44;39.34;47.74;;
43787;Laerm;29409;49.306;8.500;2023-06-14T03:15:57;42.95;40.03;53.85;;
43787;Laerm;29409;49.306;8.500;2023-06-14T03:16:57;42.93;40.13;49.91;;
43787;Laerm;29409;49.306;8.500;2023-06-14T03:17:57;43.54;40.89;61.20;;
43787;Laerm;29409;49.306;8.500;2023-06-14T03:19:00;48.05;40.53;64.38;;
43787;Laerm;29409;49.306;8.500;2023-06-14T03:20:00;43.36;40.13;48.76;;
43787;Laerm;29409;49.306;8.500;2023-06-14T03:21:01;46.27;40.89;58.62;;
43787;Laerm;29409;49.306;8.500;2023-06-14T03:22:04;42.62;39.78;51.21;;
43787;Laerm;29409;49.306;8.500;2023-06-14T03:23:05;43.28;40.62;47.76;;
43787;Laerm;29409;49.306;8.500;2023-06-14T03:24:06;42.73;39.89;46.48;;
43787;Laerm;29409;49.306;8.500;2023-06-14T03:25:07;43.65;41.30;50.27;;
43787;Laerm;29409;49.306;8.500;2023-06-14T03:26:09;43.16;40.33;50.85;;
43787;Laerm;29409;49.306;8.500;2023-06-14T03:27:14;43.66;40.53;50.39;;
43787;Laerm;29409;49.306;8.500;2023-06-14T03:28:16;46.82;40.33;58.90;;
43787;Laerm;29409;49.306;8.500;2023-06-14T03:29:16;43.67;40.53;49.22;;
43787;Laerm;29409;49.306;8.500;2023-06-14T03:30:18;42.96;39.81;48.43;;
43787;Laerm;29409;49.306;8.500;2023-06-14T03:31:18;42.50;39.58;50.77;;
43787;Laerm;29409;49.306;8.500;2023-06-14T03:32:19;43.18;39.81;54.73;;
43787;Laerm;29409;49.306;8.500;2023-06-14T03:33:19;44.35;41.61;50.53;;
43787;Laerm;29409;49.306;8.500;2023-06-14T03:34:20;43.60;40.62;53.20;;
43787;Laerm;29409;49.306;8.500;2023-06-14T03:35:21;44.64;39.46;55.91;;
43787;Laerm;29409;49.306;8.500;2023-06-14T03:36:21;42.58;39.58;51.91;;
43787;Laerm;29409;49.306;8.500;2023-06-14T03:37:22;48.42;41.61;57.92;;
43787;Laerm;29409;49.306;8.500;2023-06-14T03:38:23;43.84;40.80;60.46;;
43787;Laerm;29409;49.306;8.500;2023-06-14T03:39:23;43.31;40.62;48.71;;
43787;Laerm;29409;49.306;8.500;2023-06-14T03:40:23;42.75;40.53;50.07;;
43787;Laerm;29409;49.306;8.500;2023-06-14T03:41:27;43.43;40.89;48.58;;
43787;Laerm;29409;49.306;8.500;2023-06-14T03:42:27;45.75;40.89;55.31;;
43787;Laerm;29409;49.306;8.500;2023-06-14T03:43:28;42.50;39.58;48.37;;
43787;Laerm;29409;49.306;8.500;2023-06-14T03:44:30;42.66;40.43;50.44;;
43787;Laerm;29409;49.306;8.500;2023-06-14T03:45:30;42.69;40.71;47.90;;
43787;Laerm;29409;49.306;8.500;2023-06-14T03:46:30;44.25;40.71;51.53;;
43787;Laerm;29409;49.306;8.500;2023-06-14T03:47:31;43.95;41.14;49.23;;
43787;Laerm;29409;49.306;8.500;2023-06-14T03:48:32;42.84;40.43;47.44;;
43787;Laerm;29409;49.306;8.500;2023-06-14T03:49:34;43.44;39.58;50.00;;
43787;Laerm;29409;49.306;8.500;2023-06-14T03:50:35;43.21;40.53;48.15;;
43787;Laerm;29409;49.306;8.500;2023-06-14T03:51:37;43.12;40.53;49.09;;
43787;Laerm;29409;49.306;8.500;2023-06-14T03:52:38;45.03;41.14;53.08;;
43787;Laerm;29409;49.306;8.500;2023-06-14T03:53:38;43.90;40.03;58.03;;
43787;Laerm;29409;49.306;8.500;2023-06-14T03:54:39;44.16;40.13;58.71;;
43787;Laerm;29409;49.306;8.500;2023-06-14T03:55:39;42.81;40.62;51.16;;
43787;Laerm;29409;49.306;8.500;2023-06-14T03:56:41;46.29;40.33;63.24;;
43787;Laerm;29409;49.306;8.500;2023-06-14T03:57:41;44.46;40.98;55.43;;
43787;Laerm;29409;49.306;8.500;2023-06-14T03:58:42;49.42;41.61;66.15;;
43787;Laerm;29409;49.306;8.500;2023-06-14T03:59:42;42.22;39.70;47.84;;
43787;Laerm;29409;49.306;8.500;2023-06-14T04:00:43;49.11;39.81;63.29;;
43787;Laerm;29409;49.306;8.500;2023-06-14T04:01:45;44.92;41.22;53.06;;
43787;Laerm;29409;49.306;8.500;2023-06-14T04:02:47;43.35;39.92;49.39;;
43787;Laerm;29409;49.306;8.500;2023-06-14T04:03:48;42.81;40.13;49.92;;
43787;Laerm;29409;49.306;8.500;2023-06-14T04:04:49;45.06;40.80;71.95;;
43787;Laerm;29409;49.306;8.500;2023-06-14T04:05:50;44.43;41.41;49.34;;
43787;Laerm;29409;49.306;8.500;2023-06-14T04:06:50;42.84;40.23;49.70;;
43787;Laerm;29409;49.306;8.500;2023-06-14T04:07:51;43.59;40.89;52.37;;
43787;Laerm;29409;49.306;8.500;2023-06-14T04:08:52;44.19;40.98;51.53;;
43787;Laerm;29409;49.306;8.500;2023-06-14T04:09:54;43.78;40.62;50.60;;
43787;Laerm;29409;49.306;8.500;2023-06-14T04:10:54;43.51;39.92;50.97;;
43787;Laerm;29409;49.306;8.500;2023-06-14T04:11:55;42.62;40.27;47.55;;
43787;Laerm;29409;49.306;8.500;2023-06-14T04:12:56;43.06;40.03;47.77;;
43787;Laerm;29409;49.306;8.500;2023-06-14T04:13:56;43.52;40.62;50.79;;
43787;Laerm;29409;49.306;8.500;2023-06-14T04:14:56;43.30;40.53;51.92;;
43787;Laerm;29409;49.306;8.500;2023-06-14T04:15:59;43.47;40.33;50.53;;
43787;Laerm;29409;49.306;8.500;2023-06-14T04:16:59;43.22;40.80;49.16;;
43787;Laerm;29409;49.306;8.500;2023-06-14T04:18:00;43.91;40.53;52.65;;
43787;Laerm;29409;49.306;8.500;2023-06-14T04:19:00;43.77;40.71;51.28;;
43787;Laerm;29409;49.306;8.500;2023-06-14T04:20:01;46.78;41.96;57.42;;
43787;Laerm;29409;49.306;8.500;2023-06-14T04:21:03;45.88;41.75;53.96;;
43787;Laerm;29409;49.306;8.500;2023-06-14T04:22:04;43.91;40.62;51.93;;
43787;Laerm;29409;49.306;8.500;2023-06-14T04:23:13;43.40;40.43;48.21;;
43787;Laerm;29409;49.306;8.500;2023-06-14T04:24:14;44.33;41.46;52.76;;
43787;Laerm;29409;49.306;8.500;2023-06-14T04:25:14;45.47;41.53;54.02;;
43787;Laerm;29409;49.306;8.500;2023-06-14T04:26:16;43.92;41.46;49.21;;
43787;Laerm;29409;49.306;8.500;2023-06-14T04:27:17;44.38;41.68;50.38;;
43787;Laerm;29409;49.306;8.500;2023-06-14T04:28:22;43.46;40.98;50.35;;
43787;Laerm;29409;49.306;8.500;2023-06-14T04:29:27;45.09;40.89;70.34;;
43787;Laerm;29409;49.306;8.500;2023-06-14T04:30:32;44.91;40.53;54.85;;
43787;Laerm;29409;49.306;8.500;2023-06-14T04:31:32;44.31;41.53;50.22;;
43787;Laerm;29409;49.306;8.500;2023-06-14T04:32:33;44.52;41.89;51.14;;
43787;Laerm;29409;49.306;8.500;2023-06-14T04:33:38;44.21;41.53;48.90;;
43787;Laerm;29409;49.306;8.500;2023-06-14T04:34:43;44.40;40.98;51.65;;
43787;Laerm;29409;49.306;8.500;2023-06-14T04:35:43;49.10;41.68;63.40;;
43787;Laerm;29409;49.306;8.500;2023-06-14T04:36:47;56.11;42.09;74.93;;
43787;Laerm;29409;49.306;8.500;2023-06-14T04:37:53;44.18;41.61;48.52;;
43787;Laerm;29409;49.306;8.500;2023-06-14T04:38:53;44.13;42.16;49.87;;
43787;Laerm;29409;49.306;8.500;2023-06-14T04:39:54;44.53;42.47;52.96;;
43787;Laerm;29409;49.306;8.500;2023-06-14T04:40:56;46.61;42.53;55.68;;
43787;Laerm;29409;49.306;8.500;2023-06-14T04:41:57;44.80;42.35;52.10;;
43787;Laerm;29409;49.306;8.500;2023-06-14T04:43:01;46.62;43.14;57.62;;
43787;Laerm;29409;49.306;8.500;2023-06-14T04:44:04;44.68;42.71;48.32;;
43787;Laerm;29409;49.306;8.500;2023-06-14T04:45:05;46.29;42.03;57.99;;
43787;Laerm;29409;49.306;8.500;2023-06-14T04:46:06;44.97;42.29;55.11;;
43787;Laerm;29409;49.306;8.500;2023-06-14T04:47:14;45.46;42.53;53.52;;
43787;Laerm;29409;49.306;8.500;2023-06-14T04:48:16;44.34;42.41;52.12;;
43787;Laerm;29409;49.306;8.500;2023-06-14T04:49:19;45.09;42.35;49.77;;
43787;Laerm;29409;49.306;8.500;2023-06-14T04:50:19;45.04;43.14;49.38;;
43787;Laerm;29409;49.306;8.500;2023-06-14T04:51:20;45.41;42.47;52.67;;
43787;Laerm;29409;49.306;8.500;2023-06-14T04:52:22;48.05;42.76;63.18;;
43787;Laerm;29409;49.306;8.500;2023-06-14T04:53:26;45.11;42.22;51.01;;
43787;Laerm;29409;49.306;8.500;2023-06-14T04:54:29;47.02;42.59;66.93;;
43787;Laerm;29409;49.306;8.500;2023-06-14T04:55:31;46.35;43.04;52.05;;
43787;Laerm;29409;49.306;8.500;2023-06-14T04:56:32;45.90;42.76;51.34;;
43787;Laerm;29409;49.306;8.500;2023-06-14T04:57:33;44.80;41.82;59.84;;
43787;Laerm;29409;49.306;8.500;2023-06-14T04:58:33;44.27;41.68;55.31;;
43787;Laerm;29409;49.306;8.500;2023-06-14T04:59:33;44.29;42.09;51.38;;
43787;Laerm;29409;49.306;8.500;2023-06-14T05:00:35;44.11;41.88;48.66;;
43787;Laerm;29409;49.306;8.500;2023-06-14T05:01:35;44.61;41.61;50.89;;
43787;Laerm;29409;49.306;8.500;2023-06-14T05:02:37;44.31;41.46;50.34;;
43787;Laerm;29409;49.306;8.500;2023-06-14T05:03:38;43.52;41.30;47.83;;
43787;Laerm;29409;49.306;8.500;2023-06-14T05:04:38;43.66;41.68;48.45;;
43787;Laerm;29409;49.306;8.500;2023-06-14T05:05:40;45.60;42.03;59.70;;
43787;Laerm;29409;49.306;8.500;2023-06-14T05:06:41;47.48;40.80;63.13;;
43787;Laerm;29409;49.306;8.500;2023-06-14T05:07:48;44.13;41.30;53.36;;
43787;Laerm;29409;49.306;8.500;2023-06-14T05:08:48;44.53;42.29;52.08;;
43787;Laerm;29409;49.306;8.500;2023-06-14T05:09:48;44.99;42.76;53.92;;
43787;Laerm;29409;49.306;8.500;2023-06-14T05:10:50;44.24;42.09;47.77;;
43787;Laerm;29409;49.306;8.500;2023-06-14T05:11:53;46.78;42.41;62.35;;
43787;Laerm;29409;49.306;8.500;2023-06-14T05:12:53;44.88;42.03;56.12;;
43787;Laerm;29409;49.306;8.500;2023-06-14T05:13:55;44.47;42.35;58.57;;
43787;Laerm;29409;49.306;8.500;2023-06-14T05:14:56;44.84;42.88;50.62;;
43787;Laerm;29409;49.306;8.500;2023-06-14T05:15:58;44.40;42.76;49.64;;
43787;Laerm;29409;49.306;8.500;2023-06-14T05:16:59;44.86;42.71;49.74;;
43787;Laerm;29409;49.306;8.500;2023-06-14T05:17:59;45.11;42.47;52.13;;
43787;Laerm;29409;49.306;8.500;2023-06-14T05:18:59;46.67;42.71;58.84;;
43787;Laerm;29409;49.306;8.500;2023-06-14T05:20:01;44.74;42.09;49.56;;
43787;Laerm;29409;49.306;8.500;2023-06-14T05:21:02;44.51;42.93;49.40;;
43787;Laerm;29409;49.306;8.500;2023-06-14T05:22:03;44.66;42.76;49.65;;
43787;Laerm;29409;49.306;8.500;2023-06-14T05:23:04;46.52;42.76;57.47;;
43787;Laerm;29409;49.306;8.500;2023-06-14T05:24:06;44.54;42.29;46.62;;
43787;Laerm;29409;49.306;8.500;2023-06-14T05:25:11;46.40;41.61;58.93;;
43787;Laerm;29409;49.306;8.500;2023-06-14T05:26:11;45.78;42.47;54.77;;
43787;Laerm;29409;49.306;8.500;2023-06-14T05:27:12;52.55;42.65;68.43;;
43787;Laerm;29409;49.306;8.500;2023-06-14T05:28:13;45.96;42.53;50.48;;
43787;Laerm;29409;49.306;8.500;2023-06-14T05:29:14;45.24;42.35;49.94;;
43787;Laerm;29409;49.306;8.500;2023-06-14T05:30:14;44.62;42.59;50.01;;
43787;Laerm;29409;49.306;8.500;2023-06-14T05:31:15;44.24;42.35;48.81;;
43787;Laerm;29409;49.306;8.500;2023-06-14T05:32:17;49.09;42.65;62.73;;
43787;Laerm;29409;49.306;8.500;2023-06-14T05:33:19;45.02;41.06;66.27;;
43787;Laerm;29409;49.306;8.500;2023-06-14T05:34:20;44.62;42.03;49.46;;
43787;Laerm;29409;49.306;8.500;2023-06-14T05:35:20;44.09;42.09;48.40;;
43787;Laerm;29409;49.306;8.500;2023-06-14T05:36:23;44.39;41.89;49.00;;
43787;Laerm;29409;49.306;8.500;2023-06-14T05:37:23;44.87;41.68;50.63;;
43787;Laerm;29409;49.306;8.500;2023-06-14T05:38:24;47.46;42.03;59.90;;
43787;Laerm;29409;49.306;8.500;2023-06-14T05:39:24;45.12;41.96;58.34;;
43787;Laerm;29409;49.306;8.500;2023-06-14T05:40:25;45.05;42.16;65.18;;
43787;Laerm;29409;49.306;8.500;2023-06-14T05:41:26;45.14;42.35;51.73;;
43787;Laerm;29409;49.306;8.500;2023-06-14T05:42:28;45.74;42.16;52.42;;
43787;Laerm;29409;49.306;8.500;2023-06-14T05:43:28;44.96;42.29;50.98;;
43787;Laerm;29409;49.306;8.500;2023-06-14T05:44:28;44.21;41.68;54.77;;
43787;Laerm;29409;49.306;8.500;2023-06-14T05:45:29;43.85;41.46;50.77;;
43787;Laerm;29409;49.306;8.500;2023-06-14T05:46:29;45.30;41.22;51.83;;